sensor_id;sensor_type;location;lat;lon;timestamp;P1;durP1;ratioP1;P2;durP2;ratioP2
5277;SDS011;2662;51.194;6.614;2023-05-27T00:01:09;12.57;;;4.40;;
5277;SDS011;2662;51.194;6.614;2023-05-27T00:03:37;16.30;;;5.40;;
5277;SDS011;2662;51.194;6.614;2023-05-27T00:06:06;20.47;;;4.50;;
5277;SDS011;2662;51.194;6.614;2023-05-27T00:08:33;27.73;;;4.97;;
5277;SDS011;2662;51.194;6.614;2023-05-27T00:11:00;15.33;;;4.30;;
5277;SDS011;2662;51.194;6.614;2023-05-27T00:13:26;27.00;;;4.43;;
5277;SDS011;2662;51.194;6.614;2023-05-27T00:15:53;22.40;;;4.70;;
5277;SDS011;2662;51.194;6.614;2023-05-27T00:18:20;12.67;;;4.60;;
5277;SDS011;2662;51.194;6.614;2023-05-27T00:20:47;18.40;;;4.70;;
5277;SDS011;2662;51.194;6.614;2023-05-27T00:23:15;20.50;;;5.30;;
5277;SDS011;2662;51.194;6.614;2023-05-27T00:25:42;18.03;;;5.43;;
5277;SDS011;2662;51.194;6.614;2023-05-27T00:28:09;27.50;;;5.27;;
5277;SDS011;2662;51.194;6.614;2023-05-27T00:30:36;20.20;;;4.97;;
5277;SDS011;2662;51.194;6.614;2023-05-27T00:33:03;22.60;;;5.10;;
5277;SDS011;2662;51.194;6.614;2023-05-27T00:35:30;22.03;;;4.50;;
5277;SDS011;2662;51.194;6.614;2023-05-27T00:37:57;17.47;;;4.47;;
5277;SDS011;2662;51.194;6.614;2023-05-27T00:40:26;16.03;;;4.10;;
5277;SDS011;2662;51.194;6.614;2023-05-27T00:42:55;20.97;;;4.13;;
5277;SDS011;2662;51.194;6.614;2023-05-27T00:45:21;14.30;;;4.27;;
5277;SDS011;2662;51.194;6.614;2023-05-27T00:47:48;16.17;;;5.23;;
5277;SDS011;2662;51.194;6.614;2023-05-27T00:50:18;26.00;;;5.30;;
5277;SDS011;2662;51.194;6.614;2023-05-27T00:52:46;20.80;;;4.53;;
5277;SDS011;2662;51.194;6.614;2023-05-27T00:55:14;24.90;;;4.87;;
5277;SDS011;2662;51.194;6.614;2023-05-27T00:57:42;19.30;;;4.93;;
5277;SDS011;2662;51.194;6.614;2023-05-27T01:00:09;16.27;;;5.00;;
5277;SDS011;2662;51.194;6.614;2023-05-27T01:02:37;29.23;;;5.20;;
5277;SDS011;2662;51.194;6.614;2023-05-27T01:05:05;20.60;;;4.93;;
5277;SDS011;2662;51.194;6.614;2023-05-27T01:07:34;19.73;;;5.07;;
5277;SDS011;2662;51.194;6.614;2023-05-27T01:10:10;27.87;;;4.67;;
5277;SDS011;2662;51.194;6.614;2023-05-27T01:12:43;18.47;;;5.30;;
5277;SDS011;2662;51.194;6.614;2023-05-27T01:15:14;16.07;;;4.37;;
5277;SDS011;2662;51.194;6.614;2023-05-27T01:17:42;21.37;;;4.40;;
5277;SDS011;2662;51.194;6.614;2023-05-27T01:20:14;17.93;;;4.13;;
5277;SDS011;2662;51.194;6.614;2023-05-27T01:22:43;15.37;;;4.87;;
5277;SDS011;2662;51.194;6.614;2023-05-27T01:25:10;15.53;;;4.77;;
5277;SDS011;2662;51.194;6.614;2023-05-27T01:27:37;19.63;;;4.93;;
5277;SDS011;2662;51.194;6.614;2023-05-27T01:30:05;16.23;;;4.63;;
5277;SDS011;2662;51.194;6.614;2023-05-27T01:32:34;14.43;;;4.27;;
5277;SDS011;2662;51.194;6.614;2023-05-27T01:35:09;13.33;;;4.53;;
5277;SDS011;2662;51.194;6.614;2023-05-27T01:37:43;21.80;;;4.80;;
5277;SDS011;2662;51.194;6.614;2023-05-27T01:40:12;22.50;;;5.00;;
5277;SDS011;2662;51.194;6.614;2023-05-27T01:42:40;28.33;;;4.63;;
5277;SDS011;2662;51.194;6.614;2023-05-27T01:45:09;17.13;;;3.97;;
5277;SDS011;2662;51.194;6.614;2023-05-27T01:47:37;17.33;;;4.00;;
5277;SDS011;2662;51.194;6.614;2023-05-27T01:50:04;19.07;;;5.10;;
5277;SDS011;2662;51.194;6.614;2023-05-27T01:52:33;15.07;;;4.43;;
5277;SDS011;2662;51.194;6.614;2023-05-27T01:55:02;17.73;;;4.97;;
5277;SDS011;2662;51.194;6.614;2023-05-27T01:57:30;12.93;;;4.40;;
5277;SDS011;2662;51.194;6.614;2023-05-27T01:59:57;18.13;;;4.57;;
5277;SDS011;2662;51.194;6.614;2023-05-27T02:02:24;16.20;;;3.70;;
5277;SDS011;2662;51.194;6.614;2023-05-27T02:04:50;17.00;;;5.30;;
5277;SDS011;2662;51.194;6.614;2023-05-27T02:07:17;15.10;;;4.90;;
5277;SDS011;2662;51.194;6.614;2023-05-27T02:09:44;25.70;;;5.27;;
5277;SDS011;2662;51.194;6.614;2023-05-27T02:12:13;24.43;;;5.20;;
5277;SDS011;2662;51.194;6.614;2023-05-27T02:14:39;16.83;;;5.00;;
5277;SDS011;2662;51.194;6.614;2023-05-27T02:17:06;19.23;;;5.23;;
5277;SDS011;2662;51.194;6.614;2023-05-27T02:19:33;13.73;;;4.33;;
5277;SDS011;2662;51.194;6.614;2023-05-27T02:22:00;24.03;;;5.37;;
5277;SDS011;2662;51.194;6.614;2023-05-27T02:24:27;24.27;;;5.40;;
5277;SDS011;2662;51.194;6.614;2023-05-27T02:26:54;20.20;;;6.07;;
5277;SDS011;2662;51.194;6.614;2023-05-27T02:29:22;16.10;;;5.00;;
5277;SDS011;2662;51.194;6.614;2023-05-27T02:31:48;14.30;;;4.60;;
5277;SDS011;2662;51.194;6.614;2023-05-27T02:34:15;22.80;;;6.10;;
5277;SDS011;2662;51.194;6.614;2023-05-27T02:36:42;21.07;;;5.10;;
5277;SDS011;2662;51.194;6.614;2023-05-27T02:39:09;26.13;;;5.27;;
5277;SDS011;2662;51.194;6.614;2023-05-27T02:41:36;24.57;;;5.80;;
5277;SDS011;2662;51.194;6.614;2023-05-27T02:44:03;12.07;;;5.07;;
5277;SDS011;2662;51.194;6.614;2023-05-27T02:46:32;21.73;;;6.37;;
5277;SDS011;2662;51.194;6.614;2023-05-27T02:48:59;19.63;;;5.40;;
5277;SDS011;2662;51.194;6.614;2023-05-27T02:51:27;13.30;;;4.77;;
5277;SDS011;2662;51.194;6.614;2023-05-27T02:53:54;25.77;;;5.87;;
5277;SDS011;2662;51.194;6.614;2023-05-27T02:56:21;22.27;;;5.23;;
5277;SDS011;2662;51.194;6.614;2023-05-27T02:58:48;32.83;;;5.93;;
5277;SDS011;2662;51.194;6.614;2023-05-27T03:01:14;18.07;;;5.20;;
5277;SDS011;2662;51.194;6.614;2023-05-27T03:03:42;15.93;;;5.07;;
5277;SDS011;2662;51.194;6.614;2023-05-27T03:06:09;21.10;;;5.50;;
5277;SDS011;2662;51.194;6.614;2023-05-27T03:08:36;15.90;;;5.93;;
5277;SDS011;2662;51.194;6.614;2023-05-27T03:11:03;19.60;;;5.07;;
5277;SDS011;2662;51.194;6.614;2023-05-27T03:13:30;17.53;;;6.37;;
5277;SDS011;2662;51.194;6.614;2023-05-27T03:15:57;18.77;;;5.40;;
5277;SDS011;2662;51.194;6.614;2023-05-27T03:18:23;25.50;;;5.90;;
5277;SDS011;2662;51.194;6.614;2023-05-27T03:20:52;22.20;;;5.67;;
5277;SDS011;2662;51.194;6.614;2023-05-27T03:23:19;19.30;;;5.90;;
5277;SDS011;2662;51.194;6.614;2023-05-27T03:25:45;21.23;;;5.67;;
5277;SDS011;2662;51.194;6.614;2023-05-27T03:28:13;21.00;;;6.37;;
5277;SDS011;2662;51.194;6.614;2023-05-27T03:30:41;21.80;;;6.20;;
5277;SDS011;2662;51.194;6.614;2023-05-27T03:33:08;23.90;;;5.50;;
5277;SDS011;2662;51.194;6.614;2023-05-27T03:35:35;27.70;;;6.20;;
5277;SDS011;2662;51.194;6.614;2023-05-27T03:38:03;23.00;;;6.47;;
5277;SDS011;2662;51.194;6.614;2023-05-27T03:40:30;23.70;;;6.97;;
5277;SDS011;2662;51.194;6.614;2023-05-27T03:42:57;17.50;;;5.60;;
5277;SDS011;2662;51.194;6.614;2023-05-27T03:45:24;23.47;;;7.40;;
5277;SDS011;2662;51.194;6.614;2023-05-27T03:47:51;21.87;;;6.23;;
5277;SDS011;2662;51.194;6.614;2023-05-27T03:50:18;20.60;;;6.10;;
5277;SDS011;2662;51.194;6.614;2023-05-27T03:52:45;26.53;;;6.50;;
5277;SDS011;2662;51.194;6.614;2023-05-27T03:55:13;25.40;;;6.73;;
5277;SDS011;2662;51.194;6.614;2023-05-27T03:57:41;15.43;;;5.20;;
5277;SDS011;2662;51.194;6.614;2023-05-27T04:00:09;30.87;;;6.20;;
5277;SDS011;2662;51.194;6.614;2023-05-27T04:02:37;33.10;;;6.43;;
5277;SDS011;2662;51.194;6.614;2023-05-27T04:05:05;22.43;;;5.73;;
5277;SDS011;2662;51.194;6.614;2023-05-27T04:07:32;17.63;;;5.53;;
5277;SDS011;2662;51.194;6.614;2023-05-27T04:09:59;15.93;;;5.67;;
5277;SDS011;2662;51.194;6.614;2023-05-27T04:12:27;19.57;;;5.30;;
5277;SDS011;2662;51.194;6.614;2023-05-27T04:14:53;16.30;;;6.10;;
5277;SDS011;2662;51.194;6.614;2023-05-27T04:17:21;19.67;;;5.30;;
5277;SDS011;2662;51.194;6.614;2023-05-27T04:19:48;16.03;;;5.57;;
5277;SDS011;2662;51.194;6.614;2023-05-27T04:22:15;14.70;;;5.50;;
5277;SDS011;2662;51.194;6.614;2023-05-27T04:24:41;26.63;;;6.03;;
5277;SDS011;2662;51.194;6.614;2023-05-27T04:27:09;17.10;;;5.67;;
5277;SDS011;2662;51.194;6.614;2023-05-27T04:29:39;25.43;;;5.83;;
5277;SDS011;2662;51.194;6.614;2023-05-27T04:32:07;21.33;;;5.37;;
5277;SDS011;2662;51.194;6.614;2023-05-27T04:34:35;24.97;;;5.50;;
5277;SDS011;2662;51.194;6.614;2023-05-27T04:37:02;17.10;;;4.93;;
5277;SDS011;2662;51.194;6.614;2023-05-27T04:39:28;17.23;;;5.17;;
5277;SDS011;2662;51.194;6.614;2023-05-27T04:41:55;27.20;;;5.47;;
5277;SDS011;2662;51.194;6.614;2023-05-27T04:44:23;21.23;;;5.93;;
5277;SDS011;2662;51.194;6.614;2023-05-27T04:46:52;18.53;;;5.67;;
5277;SDS011;2662;51.194;6.614;2023-05-27T04:49:19;16.47;;;5.20;;
5277;SDS011;2662;51.194;6.614;2023-05-27T04:51:47;21.00;;;5.83;;
5277;SDS011;2662;51.194;6.614;2023-05-27T04:54:14;24.10;;;6.77;;
5277;SDS011;2662;51.194;6.614;2023-05-27T04:56:40;17.87;;;6.20;;
5277;SDS011;2662;51.194;6.614;2023-05-27T04:59:08;21.63;;;6.23;;
5277;SDS011;2662;51.194;6.614;2023-05-27T05:01:41;16.07;;;5.87;;
5277;SDS011;2662;51.194;6.614;2023-05-27T05:04:25;24.00;;;6.90;;
5277;SDS011;2662;51.194;6.614;2023-05-27T05:06:52;20.03;;;5.50;;
5277;SDS011;2662;51.194;6.614;2023-05-27T05:09:20;13.60;;;6.43;;
5277;SDS011;2662;51.194;6.614;2023-05-27T05:11:47;17.30;;;6.30;;
5277;SDS011;2662;51.194;6.614;2023-05-27T05:14:14;23.50;;;6.67;;
5277;SDS011;2662;51.194;6.614;2023-05-27T05:16:40;18.33;;;6.87;;
5277;SDS011;2662;51.194;6.614;2023-05-27T05:19:07;19.10;;;6.20;;
5277;SDS011;2662;51.194;6.614;2023-05-27T05:21:35;23.23;;;5.90;;
5277;SDS011;2662;51.194;6.614;2023-05-27T05:24:02;12.47;;;5.00;;
5277;SDS011;2662;51.194;6.614;2023-05-27T05:26:29;17.80;;;6.00;;
5277;SDS011;2662;51.194;6.614;2023-05-27T05:28:56;15.37;;;6.23;;
5277;SDS011;2662;51.194;6.614;2023-05-27T05:31:23;15.77;;;5.73;;
5277;SDS011;2662;51.194;6.614;2023-05-27T05:33:50;15.50;;;5.70;;
5277;SDS011;2662;51.194;6.614;2023-05-27T05:36:16;19.10;;;6.33;;
5277;SDS011;2662;51.194;6.614;2023-05-27T05:38:44;12.07;;;5.70;;
5277;SDS011;2662;51.194;6.614;2023-05-27T05:41:11;15.37;;;5.07;;
5277;SDS011;2662;51.194;6.614;2023-05-27T05:43:38;13.80;;;5.83;;
5277;SDS011;2662;51.194;6.614;2023-05-27T05:46:04;14.53;;;5.43;;
5277;SDS011;2662;51.194;6.614;2023-05-27T05:48:32;16.20;;;5.93;;
5277;SDS011;2662;51.194;6.614;2023-05-27T05:50:59;22.47;;;6.33;;
5277;SDS011;2662;51.194;6.614;2023-05-27T05:53:26;14.07;;;5.70;;
5277;SDS011;2662;51.194;6.614;2023-05-27T05:55:55;20.87;;;5.90;;
5277;SDS011;2662;51.194;6.614;2023-05-27T05:58:21;19.77;;;5.70;;
5277;SDS011;2662;51.194;6.614;2023-05-27T06:00:48;14.57;;;6.37;;
5277;SDS011;2662;51.194;6.614;2023-05-27T06:03:15;14.43;;;5.23;;
5277;SDS011;2662;51.194;6.614;2023-05-27T06:05:42;21.53;;;5.40;;
5277;SDS011;2662;51.194;6.614;2023-05-27T06:08:08;16.20;;;5.50;;
5277;SDS011;2662;51.194;6.614;2023-05-27T06:10:35;20.23;;;6.10;;
5277;SDS011;2662;51.194;6.614;2023-05-27T06:13:03;16.80;;;5.93;;
5277;SDS011;2662;51.194;6.614;2023-05-27T06:15:30;15.97;;;5.93;;
5277;SDS011;2662;51.194;6.614;2023-05-27T06:17:57;15.00;;;5.83;;
5277;SDS011;2662;51.194;6.614;2023-05-27T06:20:25;23.90;;;5.57;;
5277;SDS011;2662;51.194;6.614;2023-05-27T06:22:51;21.03;;;6.00;;
5277;SDS011;2662;51.194;6.614;2023-05-27T06:25:18;14.20;;;4.93;;
5277;SDS011;2662;51.194;6.614;2023-05-27T06:27:45;21.03;;;5.40;;
5277;SDS011;2662;51.194;6.614;2023-05-27T06:30:13;12.63;;;5.50;;
5277;SDS011;2662;51.194;6.614;2023-05-27T06:32:40;17.37;;;5.60;;
5277;SDS011;2662;51.194;6.614;2023-05-27T06:35:07;17.10;;;5.70;;
5277;SDS011;2662;51.194;6.614;2023-05-27T06:37:34;16.60;;;5.83;;
5277;SDS011;2662;51.194;6.614;2023-05-27T06:40:01;12.57;;;5.17;;
5277;SDS011;2662;51.194;6.614;2023-05-27T06:42:28;14.97;;;4.97;;
5277;SDS011;2662;51.194;6.614;2023-05-27T06:44:55;18.80;;;5.20;;
5277;SDS011;2662;51.194;6.614;2023-05-27T06:47:23;20.03;;;6.07;;
5277;SDS011;2662;51.194;6.614;2023-05-27T06:49:49;12.33;;;4.90;;
5277;SDS011;2662;51.194;6.614;2023-05-27T06:52:16;28.40;;;5.60;;
5277;SDS011;2662;51.194;6.614;2023-05-27T06:54:43;13.73;;;4.63;;
5277;SDS011;2662;51.194;6.614;2023-05-27T06:57:11;20.60;;;5.77;;
5277;SDS011;2662;51.194;6.614;2023-05-27T06:59:37;18.50;;;5.60;;
5277;SDS011;2662;51.194;6.614;2023-05-27T07:05:09;19.03;;;4.97;;
5277;SDS011;2662;51.194;6.614;2023-05-27T07:07:36;17.53;;;5.87;;
5277;SDS011;2662;51.194;6.614;2023-05-27T07:10:03;13.83;;;5.90;;
5277;SDS011;2662;51.194;6.614;2023-05-27T07:12:30;11.80;;;5.00;;
5277;SDS011;2662;51.194;6.614;2023-05-27T07:14:57;18.47;;;5.33;;
5277;SDS011;2662;51.194;6.614;2023-05-27T07:17:24;12.20;;;4.50;;
5277;SDS011;2662;51.194;6.614;2023-05-27T07:19:50;14.07;;;5.07;;
5277;SDS011;2662;51.194;6.614;2023-05-27T07:22:18;13.57;;;4.93;;
5277;SDS011;2662;51.194;6.614;2023-05-27T07:24:45;17.30;;;5.60;;
5277;SDS011;2662;51.194;6.614;2023-05-27T07:27:12;13.57;;;5.23;;
5277;SDS011;2662;51.194;6.614;2023-05-27T07:29:38;14.47;;;4.93;;
5277;SDS011;2662;51.194;6.614;2023-05-27T07:32:05;13.23;;;4.90;;
5277;SDS011;2662;51.194;6.614;2023-05-27T07:34:32;13.37;;;5.13;;
5277;SDS011;2662;51.194;6.614;2023-05-27T07:36:59;11.77;;;5.20;;
5277;SDS011;2662;51.194;6.614;2023-05-27T07:39:27;15.50;;;5.23;;
5277;SDS011;2662;51.194;6.614;2023-05-27T07:41:53;13.50;;;5.10;;
5277;SDS011;2662;51.194;6.614;2023-05-27T07:44:20;13.60;;;4.90;;
5277;SDS011;2662;51.194;6.614;2023-05-27T07:46:47;17.10;;;5.47;;
5277;SDS011;2662;51.194;6.614;2023-05-27T07:49:13;14.93;;;5.50;;
5277;SDS011;2662;51.194;6.614;2023-05-27T07:51:41;12.60;;;5.00;;
5277;SDS011;2662;51.194;6.614;2023-05-27T07:54:07;11.30;;;4.80;;
5277;SDS011;2662;51.194;6.614;2023-05-27T07:56:35;15.30;;;4.87;;
5277;SDS011;2662;51.194;6.614;2023-05-27T07:59:02;15.47;;;4.83;;
5277;SDS011;2662;51.194;6.614;2023-05-27T08:01:29;10.70;;;4.43;;
5277;SDS011;2662;51.194;6.614;2023-05-27T08:03:57;14.57;;;4.87;;
5277;SDS011;2662;51.194;6.614;2023-05-27T08:06:24;15.93;;;4.63;;
5277;SDS011;2662;51.194;6.614;2023-05-27T08:08:51;14.03;;;5.10;;
5277;SDS011;2662;51.194;6.614;2023-05-27T08:11:17;16.13;;;5.07;;
5277;SDS011;2662;51.194;6.614;2023-05-27T08:13:46;16.50;;;5.17;;
5277;SDS011;2662;51.194;6.614;2023-05-27T08:16:13;14.80;;;5.20;;
5277;SDS011;2662;51.194;6.614;2023-05-27T08:18:39;11.53;;;4.77;;
5277;SDS011;2662;51.194;6.614;2023-05-27T08:21:06;13.30;;;5.23;;
5277;SDS011;2662;51.194;6.614;2023-05-27T08:23:33;20.50;;;5.70;;
5277;SDS011;2662;51.194;6.614;2023-05-27T08:26:00;10.20;;;4.60;;
5277;SDS011;2662;51.194;6.614;2023-05-27T08:28:26;16.50;;;4.77;;
5277;SDS011;2662;51.194;6.614;2023-05-27T08:30:55;25.13;;;6.40;;
5277;SDS011;2662;51.194;6.614;2023-05-27T08:33:21;22.63;;;5.33;;
5277;SDS011;2662;51.194;6.614;2023-05-27T08:35:48;16.97;;;5.13;;
5277;SDS011;2662;51.194;6.614;2023-05-27T08:38:15;20.63;;;5.03;;
5277;SDS011;2662;51.194;6.614;2023-05-27T08:40:42;15.57;;;5.07;;
5277;SDS011;2662;51.194;6.614;2023-05-27T08:43:08;14.60;;;5.30;;
5277;SDS011;2662;51.194;6.614;2023-05-27T08:45:36;17.57;;;5.70;;
5277;SDS011;2662;51.194;6.614;2023-05-27T08:48:06;14.90;;;4.93;;
5277;SDS011;2662;51.194;6.614;2023-05-27T08:50:35;22.30;;;5.30;;
5277;SDS011;2662;51.194;6.614;2023-05-27T08:53:02;15.07;;;4.47;;
5277;SDS011;2662;51.194;6.614;2023-05-27T08:55:29;19.93;;;5.30;;
5277;SDS011;2662;51.194;6.614;2023-05-27T08:57:58;20.50;;;5.90;;
5277;SDS011;2662;51.194;6.614;2023-05-27T09:00:25;15.03;;;5.20;;
5277;SDS011;2662;51.194;6.614;2023-05-27T09:02:52;15.73;;;5.90;;
5277;SDS011;2662;51.194;6.614;2023-05-27T09:05:22;13.57;;;4.60;;
5277;SDS011;2662;51.194;6.614;2023-05-27T09:07:49;10.97;;;5.20;;
5277;SDS011;2662;51.194;6.614;2023-05-27T09:10:16;18.23;;;5.67;;
5277;SDS011;2662;51.194;6.614;2023-05-27T09:12:43;15.83;;;5.60;;
5277;SDS011;2662;51.194;6.614;2023-05-27T09:15:12;14.27;;;5.10;;
5277;SDS011;2662;51.194;6.614;2023-05-27T09:17:42;23.73;;;5.30;;
5277;SDS011;2662;51.194;6.614;2023-05-27T09:20:10;17.70;;;5.43;;
5277;SDS011;2662;51.194;6.614;2023-05-27T09:22:39;15.40;;;5.23;;
5277;SDS011;2662;51.194;6.614;2023-05-27T09:25:07;13.93;;;5.10;;
5277;SDS011;2662;51.194;6.614;2023-05-27T09:27:34;11.77;;;5.30;;
5277;SDS011;2662;51.194;6.614;2023-05-27T09:30:08;16.80;;;5.20;;
5277;SDS011;2662;51.194;6.614;2023-05-27T09:32:35;14.30;;;5.93;;
5277;SDS011;2662;51.194;6.614;2023-05-27T09:35:02;12.80;;;5.00;;
5277;SDS011;2662;51.194;6.614;2023-05-27T09:37:33;11.77;;;4.43;;
5277;SDS011;2662;51.194;6.614;2023-05-27T09:40:05;16.50;;;5.10;;
5277;SDS011;2662;51.194;6.614;2023-05-27T09:42:41;13.90;;;4.80;;
5277;SDS011;2662;51.194;6.614;2023-05-27T09:45:09;12.33;;;4.63;;
5277;SDS011;2662;51.194;6.614;2023-05-27T09:47:38;13.10;;;4.97;;
5277;SDS011;2662;51.194;6.614;2023-05-27T09:50:07;17.50;;;5.07;;
5277;SDS011;2662;51.194;6.614;2023-05-27T09:52:36;10.30;;;5.33;;
5277;SDS011;2662;51.194;6.614;2023-05-27T09:55:06;20.17;;;5.33;;
5277;SDS011;2662;51.194;6.614;2023-05-27T09:57:34;15.20;;;5.00;;
5277;SDS011;2662;51.194;6.614;2023-05-27T10:00:02;12.83;;;4.87;;
5277;SDS011;2662;51.194;6.614;2023-05-27T10:02:35;12.40;;;5.10;;
5277;SDS011;2662;51.194;6.614;2023-05-27T10:05:02;17.00;;;4.77;;
5277;SDS011;2662;51.194;6.614;2023-05-27T10:07:33;14.93;;;4.83;;
5277;SDS011;2662;51.194;6.614;2023-05-27T10:10:02;16.70;;;5.03;;
5277;SDS011;2662;51.194;6.614;2023-05-27T10:12:33;14.23;;;5.00;;
5277;SDS011;2662;51.194;6.614;2023-05-27T10:15:00;18.20;;;5.10;;
5277;SDS011;2662;51.194;6.614;2023-05-27T10:17:27;13.63;;;5.60;;
5277;SDS011;2662;51.194;6.614;2023-05-27T10:20:06;14.83;;;4.80;;
5277;SDS011;2662;51.194;6.614;2023-05-27T10:22:38;14.50;;;4.97;;
5277;SDS011;2662;51.194;6.614;2023-05-27T10:25:12;17.43;;;5.20;;
5277;SDS011;2662;51.194;6.614;2023-05-27T10:27:43;22.47;;;5.10;;
5277;SDS011;2662;51.194;6.614;2023-05-27T10:30:11;8.13;;;4.20;;
5277;SDS011;2662;51.194;6.614;2023-05-27T10:32:42;15.00;;;5.93;;
5277;SDS011;2662;51.194;6.614;2023-05-27T10:35:09;12.63;;;4.77;;
5277;SDS011;2662;51.194;6.614;2023-05-27T10:37:37;12.33;;;3.97;;
5277;SDS011;2662;51.194;6.614;2023-05-27T10:40:04;17.47;;;5.00;;
5277;SDS011;2662;51.194;6.614;2023-05-27T10:42:34;17.27;;;5.70;;
5277;SDS011;2662;51.194;6.614;2023-05-27T10:45:04;12.60;;;5.17;;
5277;SDS011;2662;51.194;6.614;2023-05-27T10:47:34;13.37;;;5.13;;
5277;SDS011;2662;51.194;6.614;2023-05-27T10:50:09;20.13;;;5.13;;
5277;SDS011;2662;51.194;6.614;2023-05-27T10:52:37;16.57;;;4.40;;
5277;SDS011;2662;51.194;6.614;2023-05-27T10:55:05;12.23;;;4.10;;
5277;SDS011;2662;51.194;6.614;2023-05-27T10:57:34;11.83;;;4.50;;
5277;SDS011;2662;51.194;6.614;2023-05-27T11:00:02;12.13;;;4.67;;
5277;SDS011;2662;51.194;6.614;2023-05-27T11:02:33;19.20;;;4.57;;
5277;SDS011;2662;51.194;6.614;2023-05-27T11:05:07;15.80;;;4.90;;
5277;SDS011;2662;51.194;6.614;2023-05-27T11:07:36;14.47;;;4.73;;
5277;SDS011;2662;51.194;6.614;2023-05-27T11:10:05;12.53;;;4.07;;
5277;SDS011;2662;51.194;6.614;2023-05-27T11:12:34;11.10;;;4.07;;
5277;SDS011;2662;51.194;6.614;2023-05-27T11:15:01;11.47;;;4.70;;
5277;SDS011;2662;51.194;6.614;2023-05-27T11:17:28;14.33;;;4.27;;
5277;SDS011;2662;51.194;6.614;2023-05-27T11:19:55;13.17;;;4.40;;
5277;SDS011;2662;51.194;6.614;2023-05-27T11:22:23;23.27;;;5.20;;
5277;SDS011;2662;51.194;6.614;2023-05-27T11:24:57;17.33;;;4.47;;
5277;SDS011;2662;51.194;6.614;2023-05-27T11:27:24;14.60;;;4.03;;
5277;SDS011;2662;51.194;6.614;2023-05-27T11:30:05;11.60;;;4.37;;
5277;SDS011;2662;51.194;6.614;2023-05-27T11:32:34;13.00;;;4.23;;
5277;SDS011;2662;51.194;6.614;2023-05-27T11:35:01;12.90;;;4.30;;
5277;SDS011;2662;51.194;6.614;2023-05-27T11:37:30;14.40;;;3.73;;
5277;SDS011;2662;51.194;6.614;2023-05-27T11:39:58;11.23;;;4.43;;
5277;SDS011;2662;51.194;6.614;2023-05-27T11:42:24;11.73;;;4.43;;
5277;SDS011;2662;51.194;6.614;2023-05-27T11:44:51;26.97;;;5.20;;
5277;SDS011;2662;51.194;6.614;2023-05-27T11:47:21;11.60;;;4.17;;
5277;SDS011;2662;51.194;6.614;2023-05-27T11:49:48;21.80;;;5.60;;
5277;SDS011;2662;51.194;6.614;2023-05-27T11:52:16;15.53;;;4.23;;
5277;SDS011;2662;51.194;6.614;2023-05-27T11:54:42;18.60;;;3.93;;
5277;SDS011;2662;51.194;6.614;2023-05-27T11:57:09;16.73;;;4.77;;
5277;SDS011;2662;51.194;6.614;2023-05-27T11:59:37;11.27;;;3.80;;
5277;SDS011;2662;51.194;6.614;2023-05-27T12:02:04;15.83;;;4.30;;
5277;SDS011;2662;51.194;6.614;2023-05-27T12:04:32;15.07;;;4.93;;
5277;SDS011;2662;51.194;6.614;2023-05-27T12:07:00;9.43;;;4.33;;
5277;SDS011;2662;51.194;6.614;2023-05-27T12:09:27;11.23;;;4.10;;
5277;SDS011;2662;51.194;6.614;2023-05-27T12:11:54;18.10;;;4.20;;
5277;SDS011;2662;51.194;6.614;2023-05-27T12:14:21;14.33;;;3.93;;
5277;SDS011;2662;51.194;6.614;2023-05-27T12:16:48;9.27;;;3.50;;
5277;SDS011;2662;51.194;6.614;2023-05-27T12:19:15;12.90;;;4.33;;
5277;SDS011;2662;51.194;6.614;2023-05-27T12:21:43;17.93;;;4.80;;
5277;SDS011;2662;51.194;6.614;2023-05-27T12:24:10;14.70;;;4.60;;
5277;SDS011;2662;51.194;6.614;2023-05-27T12:26:37;12.13;;;4.17;;
5277;SDS011;2662;51.194;6.614;2023-05-27T12:29:05;8.97;;;3.70;;
5277;SDS011;2662;51.194;6.614;2023-05-27T12:31:33;10.90;;;3.77;;
5277;SDS011;2662;51.194;6.614;2023-05-27T12:33:59;13.77;;;4.30;;
5277;SDS011;2662;51.194;6.614;2023-05-27T12:36:26;11.27;;;4.00;;
5277;SDS011;2662;51.194;6.614;2023-05-27T12:38:54;14.27;;;4.40;;
5277;SDS011;2662;51.194;6.614;2023-05-27T12:41:21;12.30;;;4.40;;
5277;SDS011;2662;51.194;6.614;2023-05-27T12:43:48;10.90;;;3.70;;
5277;SDS011;2662;51.194;6.614;2023-05-27T12:46:14;8.07;;;3.83;;
5277;SDS011;2662;51.194;6.614;2023-05-27T12:48:41;16.87;;;3.93;;
5277;SDS011;2662;51.194;6.614;2023-05-27T12:51:08;15.57;;;3.90;;
5277;SDS011;2662;51.194;6.614;2023-05-27T12:53:36;13.63;;;3.70;;
5277;SDS011;2662;51.194;6.614;2023-05-27T12:56:04;14.30;;;4.27;;
5277;SDS011;2662;51.194;6.614;2023-05-27T12:58:31;14.43;;;4.50;;
5277;SDS011;2662;51.194;6.614;2023-05-27T13:00:58;16.57;;;4.30;;
5277;SDS011;2662;51.194;6.614;2023-05-27T13:03:24;14.17;;;4.13;;
5277;SDS011;2662;51.194;6.614;2023-05-27T13:05:52;12.50;;;4.67;;
5277;SDS011;2662;51.194;6.614;2023-05-27T13:08:18;9.17;;;4.17;;
5277;SDS011;2662;51.194;6.614;2023-05-27T13:10:45;10.40;;;3.90;;
5277;SDS011;2662;51.194;6.614;2023-05-27T13:13:13;11.63;;;4.60;;
5277;SDS011;2662;51.194;6.614;2023-05-27T13:15:40;11.67;;;3.40;;
5277;SDS011;2662;51.194;6.614;2023-05-27T13:18:07;20.03;;;4.27;;
5277;SDS011;2662;51.194;6.614;2023-05-27T13:20:35;12.10;;;4.07;;
5277;SDS011;2662;51.194;6.614;2023-05-27T13:23:02;14.07;;;4.37;;
5277;SDS011;2662;51.194;6.614;2023-05-27T13:25:29;8.67;;;4.27;;
5277;SDS011;2662;51.194;6.614;2023-05-27T13:27:57;11.43;;;4.20;;
5277;SDS011;2662;51.194;6.614;2023-05-27T13:30:25;16.30;;;3.77;;
5277;SDS011;2662;51.194;6.614;2023-05-27T13:32:52;8.27;;;4.07;;
5277;SDS011;2662;51.194;6.614;2023-05-27T13:35:20;12.83;;;4.30;;
5277;SDS011;2662;51.194;6.614;2023-05-27T13:37:46;10.60;;;4.20;;
5277;SDS011;2662;51.194;6.614;2023-05-27T13:40:13;8.77;;;3.50;;
5277;SDS011;2662;51.194;6.614;2023-05-27T13:42:40;14.03;;;4.20;;
5277;SDS011;2662;51.194;6.614;2023-05-27T13:45:07;16.97;;;3.90;;
5277;SDS011;2662;51.194;6.614;2023-05-27T13:47:36;19.00;;;4.37;;
5277;SDS011;2662;51.194;6.614;2023-05-27T13:50:05;9.60;;;3.87;;
5277;SDS011;2662;51.194;6.614;2023-05-27T13:52:33;12.40;;;3.80;;
5277;SDS011;2662;51.194;6.614;2023-05-27T13:54:59;6.33;;;3.57;;
5277;SDS011;2662;51.194;6.614;2023-05-27T13:57:26;10.50;;;3.90;;
5277;SDS011;2662;51.194;6.614;2023-05-27T13:59:53;11.07;;;4.20;;
5277;SDS011;2662;51.194;6.614;2023-05-27T14:02:20;7.23;;;3.73;;
5277;SDS011;2662;51.194;6.614;2023-05-27T14:04:48;8.47;;;3.87;;
5277;SDS011;2662;51.194;6.614;2023-05-27T14:07:15;11.37;;;4.10;;
5277;SDS011;2662;51.194;6.614;2023-05-27T14:09:42;9.40;;;3.87;;
5277;SDS011;2662;51.194;6.614;2023-05-27T14:12:08;9.00;;;4.70;;
5277;SDS011;2662;51.194;6.614;2023-05-27T14:14:35;8.37;;;3.80;;
5277;SDS011;2662;51.194;6.614;2023-05-27T14:17:02;13.73;;;3.90;;
5277;SDS011;2662;51.194;6.614;2023-05-27T14:19:29;14.13;;;3.97;;
5277;SDS011;2662;51.194;6.614;2023-05-27T14:21:57;10.27;;;4.10;;
5277;SDS011;2662;51.194;6.614;2023-05-27T14:24:24;15.47;;;4.00;;
5277;SDS011;2662;51.194;6.614;2023-05-27T14:26:50;12.43;;;3.93;;
5277;SDS011;2662;51.194;6.614;2023-05-27T14:29:17;12.07;;;4.30;;
5277;SDS011;2662;51.194;6.614;2023-05-27T14:31:44;11.13;;;4.17;;
5277;SDS011;2662;51.194;6.614;2023-05-27T14:34:11;7.17;;;4.20;;
5277;SDS011;2662;51.194;6.614;2023-05-27T14:36:37;9.80;;;3.30;;
5277;SDS011;2662;51.194;6.614;2023-05-27T14:39:07;7.57;;;3.00;;
5277;SDS011;2662;51.194;6.614;2023-05-27T14:41:33;11.77;;;4.37;;
5277;SDS011;2662;51.194;6.614;2023-05-27T14:44:00;14.13;;;4.60;;
5277;SDS011;2662;51.194;6.614;2023-05-27T14:46:27;13.30;;;4.10;;
5277;SDS011;2662;51.194;6.614;2023-05-27T14:48:54;15.57;;;4.57;;
5277;SDS011;2662;51.194;6.614;2023-05-27T14:51:21;14.40;;;3.67;;
5277;SDS011;2662;51.194;6.614;2023-05-27T14:53:48;12.00;;;3.80;;
5277;SDS011;2662;51.194;6.614;2023-05-27T14:56:16;8.47;;;4.23;;
5277;SDS011;2662;51.194;6.614;2023-05-27T14:58:43;9.77;;;3.80;;
5277;SDS011;2662;51.194;6.614;2023-05-27T15:01:11;10.93;;;4.33;;
5277;SDS011;2662;51.194;6.614;2023-05-27T15:03:37;11.63;;;4.00;;
5277;SDS011;2662;51.194;6.614;2023-05-27T15:06:04;7.43;;;3.97;;
5277;SDS011;2662;51.194;6.614;2023-05-27T15:08:33;11.50;;;3.83;;